메인 페이지
METAR-TAF:

METAR-TAF

공항 :

가보로네, 보츠와나

위도: 24-13S, 경도: 025-55E, 고도: 1005m

현재 날씨관측

예보는 20분 전, 03:00시(UTC)에 발표되었습니다.
온도 6°C
습도 22%
기압 1021 hPa
시정 10km 이상
1500m 미만 상공 구름 및 적란운 없음

METAR: FBSK 250300Z /////KT CAVOK 06/M14 Q1021 NOSIG

시각: 05:20 (03:20 UTC)

예보

예보는 5 시간 20분 전, 22:00시(UTC)에 발표되었습니다.
예보 대상 시간: 25일 00시부터 26일 06시까지 (UTC)
남서5kt
시정 10km 이상
1500m 미만 상공 구름 및 적란운 없음
전환 중
25일 06시부터 25일 08시까지 (UTC)
여러 방향의 바람 2kt
전환 중
25일 19시부터 25일 21시까지 (UTC)
남남서4kt

TAF: FBSK 242200Z 2500/2606 22005KT CAVOK BECMG 2506/2508 VRB02KT BECMG 2519/2521 20004KT

4,000개 이상의 공항 관측 자료 및 예보 (METAR 및 TAF 보고).

지도상에서 검색 가능한 기상관측소가 노란 점과 빨간 점으로 표시되어 있습니다.

기상관측소 명을 보려면 표시 위로 마우스를 이동하세요.

날씨 관측과 예보를 보려면 클릭하세요.

지도 변경 : 확대하려면 엑스 표시가 있는 녹색 버튼, 축소하려면 빼기 표시가 있는 녹색 버튼, 다음 페이지의 지도를 보려면 녹색 화살표를 클릭하세요.


METAR-TAF: